createdAt,value
2022-11-21T00:01:45.163Z,3.85
2022-11-21T00:06:37.609Z,4.82
2022-11-21T00:09:03.822Z,7.90
2022-11-21T00:11:30.101Z,5.72
2022-11-21T00:13:56.314Z,7.00
2022-11-21T00:16:22.528Z,2.97
2022-11-21T00:18:48.805Z,3.33
2022-11-21T00:21:16.361Z,5.63
2022-11-21T00:23:42.921Z,5.75
2022-11-21T00:26:10.097Z,6.88
2022-11-21T00:28:36.632Z,11.73
2022-11-21T00:31:03.552Z,2.35
2022-11-21T00:35:56.035Z,5.47
2022-11-21T00:38:24.283Z,5.03
2022-11-21T00:40:50.511Z,3.97
2022-11-21T00:43:16.712Z,3.85
2022-11-21T00:45:42.963Z,4.45
2022-11-21T00:48:09.194Z,9.32
2022-11-21T00:50:35.449Z,6.38
2022-11-21T00:53:01.649Z,8.10
2022-11-21T00:55:27.922Z,6.50
2022-11-21T00:57:54.182Z,6.78
2022-11-21T01:00:20.466Z,9.57
2022-11-21T01:02:46.678Z,8.68
2022-11-21T01:05:12.933Z,6.43
2022-11-21T01:07:39.265Z,6.28
2022-11-21T01:10:05.901Z,5.13
2022-11-21T01:12:32.134Z,9.73
2022-11-21T01:14:58.343Z,9.13
2022-11-21T01:17:24.581Z,17.23
2022-11-21T01:19:50.829Z,19.50
2022-11-21T01:22:17.089Z,9.60
2022-11-21T01:24:43.319Z,14.40
2022-11-21T01:27:09.543Z,6.97
2022-11-21T01:29:35.773Z,8.52
2022-11-21T01:32:02.031Z,10.90
2022-11-21T01:34:28.598Z,7.65
2022-11-21T01:36:55.069Z,10.13
2022-11-21T01:39:21.303Z,7.97
2022-11-21T01:41:47.555Z,10.60
2022-11-21T01:44:19.531Z,7.82
2022-11-21T01:46:46.043Z,6.35
2022-11-21T01:49:15.999Z,4.15
2022-11-21T01:52:01.139Z,6.13
2022-11-21T01:54:30.152Z,8.15
2022-11-21T01:56:59.391Z,6.63
2022-11-21T01:59:28.214Z,5.65
2022-11-21T02:01:55.377Z,9.20
2022-11-21T02:04:22.352Z,8.40
2022-11-21T02:09:14.847Z,16.60
2022-11-21T02:11:43.463Z,9.52
2022-11-21T02:14:09.866Z,9.85
2022-11-21T02:16:36.528Z,13.30
2022-11-21T02:19:03.493Z,9.35
2022-11-21T02:24:25.900Z,8.52
2022-11-21T02:26:52.371Z,7.15
2022-11-21T02:29:18.603Z,11.18
2022-11-21T02:31:44.984Z,4.60
2022-11-21T02:34:11.194Z,3.58
2022-11-21T02:36:42.672Z,8.43
2022-11-21T02:39:15.241Z,7.70
2022-11-21T02:41:45.076Z,4.20
2022-11-21T02:44:31.551Z,7.72
2022-11-21T02:46:57.835Z,4.65
2022-11-21T02:49:44.310Z,6.95
2022-11-21T02:52:10.607Z,7.78
2022-11-21T02:54:36.886Z,4.13
2022-11-21T02:57:03.165Z,5.90
2022-11-21T02:59:29.369Z,4.25
2022-11-21T03:01:59.571Z,8.40
2022-11-21T03:04:26.800Z,5.10
2022-11-21T03:06:53.255Z,10.98
2022-11-21T03:09:19.497Z,6.28
2022-11-21T03:11:45.808Z,3.22
2022-11-21T03:14:12.078Z,4.45
2022-11-21T03:16:38.351Z,4.50
2022-11-21T03:19:04.591Z,7.20
2022-11-21T03:21:30.798Z,5.57
2022-11-21T03:23:57.087Z,5.40
2022-11-21T03:26:23.330Z,6.07
2022-11-21T03:28:49.557Z,6.95
2022-11-21T03:31:15.791Z,7.50
2022-11-21T03:33:42.033Z,7.43
2022-11-21T03:36:08.337Z,1.80
2022-11-21T03:38:34.582Z,11.77
2022-11-21T03:41:26.856Z,4.00
2022-11-21T03:43:53.246Z,1.88
2022-11-21T03:46:19.501Z,5.25
2022-11-21T03:48:45.719Z,3.45
2022-11-21T03:51:11.937Z,5.53
2022-11-21T03:53:38.164Z,2.13
2022-11-21T03:56:04.491Z,5.60
2022-11-21T03:58:31.182Z,8.35
2022-11-21T04:00:57.509Z,5.72
2022-11-21T04:03:23.798Z,2.63
2022-11-21T04:05:50.019Z,3.60
2022-11-21T04:08:16.300Z,5.07
2022-11-21T04:10:49.185Z,6.38
2022-11-21T04:13:15.412Z,3.30
2022-11-21T04:15:41.836Z,2.33
2022-11-21T04:18:08.181Z,2.85
2022-11-21T04:20:34.471Z,1.92
2022-11-21T04:23:00.712Z,1.58
2022-11-21T04:25:26.991Z,3.35
2022-11-21T04:28:00.176Z,5.07
2022-11-21T04:30:26.667Z,1.75
2022-11-21T04:32:56.237Z,4.97
2022-11-21T04:35:23.532Z,6.82
2022-11-21T04:37:49.838Z,5.90
2022-11-21T04:40:16.534Z,1.77
2022-11-21T04:42:46.772Z,3.90
2022-11-21T04:45:13.473Z,8.68
2022-11-21T04:47:40.275Z,2.22
2022-11-21T04:50:07.358Z,4.38
2022-11-21T04:52:33.990Z,4.10
2022-11-21T04:55:00.201Z,3.92
2022-11-21T04:57:29.193Z,3.88
2022-11-21T04:59:55.535Z,4.80
2022-11-21T05:02:22.197Z,2.40
2022-11-21T05:04:48.476Z,4.07
2022-11-21T05:07:15.089Z,5.43
2022-11-21T05:09:41.363Z,8.57
2022-11-21T05:12:28.111Z,7.03
2022-11-21T05:14:54.410Z,5.75
2022-11-21T05:17:20.719Z,5.20
2022-11-21T05:19:47.029Z,5.10
2022-11-21T05:22:13.441Z,5.57
2022-11-21T05:24:39.710Z,7.72
2022-11-21T05:27:05.931Z,5.72
2022-11-21T05:29:32.242Z,6.65
2022-11-21T05:31:58.460Z,3.92
2022-11-21T05:34:24.710Z,4.18
2022-11-21T05:36:56.954Z,4.60
2022-11-21T05:39:23.247Z,10.00
2022-11-21T05:41:49.535Z,7.68
2022-11-21T05:44:15.768Z,4.13
2022-11-21T05:46:42.043Z,1.88
2022-11-21T05:49:08.391Z,7.85
2022-11-21T05:51:34.628Z,5.88
2022-11-21T05:54:01.007Z,6.30
2022-11-21T05:56:27.374Z,4.95
2022-11-21T05:58:57.557Z,6.47
2022-11-21T06:01:55.914Z,14.55
2022-11-21T06:04:22.415Z,19.83
2022-11-21T06:06:48.718Z,4.38
2022-11-21T06:09:14.967Z,9.23
2022-11-21T06:11:41.403Z,12.98
2022-11-21T06:14:07.703Z,5.22
2022-11-21T06:16:33.928Z,7.78
2022-11-21T06:19:00.166Z,5.65
2022-11-21T06:21:28.169Z,10.13
2022-11-21T06:23:55.890Z,11.90
2022-11-21T06:26:23.445Z,4.97
2022-11-21T06:28:49.729Z,5.72
2022-11-21T06:33:57.714Z,8.38
2022-11-21T06:36:24.335Z,8.52
2022-11-21T06:38:52.656Z,10.70
2022-11-21T06:41:19.927Z,9.07
2022-11-21T06:43:46.412Z,8.23
2022-11-21T06:46:13.682Z,6.72
2022-11-21T06:48:40.471Z,8.40
2022-11-21T06:51:14.699Z,13.15
2022-11-21T06:53:40.947Z,10.25
2022-11-21T06:56:07.225Z,8.73
2022-11-21T06:58:33.548Z,8.48
2022-11-21T07:01:03.918Z,6.70
2022-11-21T07:03:30.178Z,8.50
2022-11-21T07:06:01.442Z,9.65
2022-11-21T07:08:32.148Z,9.13
2022-11-21T07:11:25.594Z,6.85
2022-11-21T07:13:52.171Z,15.57
2022-11-21T07:16:18.407Z,8.75
2022-11-21T07:18:45.478Z,6.63
2022-11-21T07:21:11.752Z,16.05
2022-11-21T07:23:38.051Z,11.05
2022-11-21T07:26:05.570Z,7.90
2022-11-21T07:28:32.456Z,6.20
2022-11-21T07:33:25.058Z,9.52
2022-11-21T07:35:51.520Z,3.58
2022-11-21T07:38:17.823Z,8.13
2022-11-21T07:40:44.225Z,7.38
2022-11-21T07:43:11.061Z,4.60
2022-11-21T07:48:05.115Z,7.05
2022-11-21T07:50:31.628Z,10.20
2022-11-21T07:53:01.593Z,10.43
2022-11-21T07:55:31.351Z,5.68
2022-11-21T07:58:03.695Z,9.70
2022-11-21T08:00:30.944Z,3.65
2022-11-21T08:02:57.371Z,6.35
2022-11-21T08:05:23.906Z,13.30
2022-11-21T08:07:50.472Z,9.73
2022-11-21T08:10:17.061Z,9.35
2022-11-21T08:12:44.120Z,6.72
2022-11-21T08:15:10.628Z,14.10
2022-11-21T08:17:36.974Z,8.15
2022-11-21T08:20:04.266Z,8.18
2022-11-21T08:22:30.515Z,9.98
2022-11-21T08:24:56.748Z,15.40
2022-11-21T08:27:24.325Z,8.85
2022-11-21T08:29:50.663Z,7.72
2022-11-21T08:32:16.904Z,12.38
2022-11-21T08:34:43.169Z,9.07
2022-11-21T08:37:09.584Z,13.13
2022-11-21T08:39:35.858Z,10.82
2022-11-21T08:42:05.313Z,11.43
2022-11-21T08:44:32.440Z,8.07
2022-11-21T08:46:58.768Z,9.93
2022-11-21T08:49:25.086Z,6.72
2022-11-21T08:51:51.530Z,6.18
2022-11-21T08:54:18.158Z,11.85
2022-11-21T08:56:44.798Z,11.07
2022-11-21T08:59:11.090Z,11.73
2022-11-21T09:01:37.559Z,8.98
2022-11-21T09:04:04.752Z,7.07
2022-11-21T09:06:31.109Z,7.20
2022-11-21T09:08:57.374Z,6.45
2022-11-21T09:11:24.986Z,10.02
2022-11-21T09:14:10.561Z,19.15
2022-11-21T09:17:00.697Z,12.35
2022-11-21T09:19:28.523Z,10.30
2022-11-21T09:21:55.164Z,11.15
2022-11-21T09:24:21.405Z,16.00
2022-11-21T09:26:47.728Z,9.88
2022-11-21T09:29:15.009Z,7.95
2022-11-21T09:31:42.020Z,9.98
2022-11-21T09:36:34.759Z,6.18
2022-11-21T09:39:01.061Z,10.38
2022-11-21T09:41:54.548Z,13.45
2022-11-21T09:44:39.654Z,7.38
2022-11-21T09:47:15.191Z,12.18
2022-11-21T09:49:43.441Z,6.43
2022-11-21T09:52:11.487Z,6.93
2022-11-21T09:54:41.936Z,8.38
2022-11-21T09:57:10.564Z,9.32
2022-11-21T09:59:38.739Z,7.60
2022-11-21T10:02:13.674Z,7.30
2022-11-21T10:04:39.930Z,9.60
2022-11-21T10:07:10.142Z,20.52
2022-11-21T10:09:45.604Z,6.75
2022-11-21T10:12:39.633Z,8.95
2022-11-21T10:15:06.735Z,7.38
2022-11-21T10:17:51.552Z,9.98
2022-11-21T10:20:36.778Z,9.35
2022-11-21T10:23:18.336Z,8.60
2022-11-21T10:25:49.675Z,7.65
2022-11-21T10:31:44.286Z,8.63
2022-11-21T10:34:12.211Z,11.55
2022-11-21T10:36:39.854Z,11.35
2022-11-21T10:39:11.572Z,8.73
2022-11-21T10:41:48.353Z,11.30
2022-11-21T10:44:40.504Z,10.55
2022-11-21T10:47:13.119Z,12.00
2022-11-21T10:49:39.540Z,7.75
2022-11-21T10:52:11.935Z,8.23
2022-11-21T10:55:10.726Z,15.05
2022-11-21T10:57:42.741Z,10.95
2022-11-21T11:00:15.048Z,14.70
2022-11-21T11:02:42.943Z,7.68
2022-11-21T11:05:29.429Z,9.23
2022-11-21T11:08:03.448Z,8.55
2022-11-21T11:10:30.193Z,10.68
2022-11-21T11:13:44.519Z,15.30
2022-11-21T11:16:06.724Z,11.32
2022-11-21T11:18:34.638Z,8.48
2022-11-21T11:21:18.019Z,10.18
2022-11-21T11:23:44.528Z,8.10
2022-11-21T11:26:30.245Z,8.75
2022-11-21T11:29:13.104Z,12.00
2022-11-21T11:31:40.230Z,8.15
2022-11-21T11:34:10.219Z,9.55
2022-11-21T11:36:39.461Z,9.63
2022-11-21T11:39:10.440Z,12.25
2022-11-21T11:41:59.349Z,8.95
2022-11-21T11:44:49.962Z,8.63
2022-11-21T11:47:30.551Z,11.48
2022-11-21T11:50:12.699Z,10.25
2022-11-21T11:52:42.053Z,8.50
2022-11-21T11:55:15.323Z,12.02
2022-11-21T11:57:42.857Z,8.32
2022-11-21T12:00:21.759Z,11.82
2022-11-21T12:02:58.574Z,8.65
2022-11-21T12:05:26.066Z,11.00
2022-11-21T12:11:22.387Z,13.77
2022-11-21T12:13:52.148Z,6.38
2022-11-21T12:16:18.999Z,7.40
2022-11-21T12:21:15.555Z,7.43
2022-11-21T12:23:41.781Z,9.57
2022-11-21T12:26:07.991Z,12.35
2022-11-21T12:28:56.988Z,7.00
2022-11-21T12:31:32.400Z,6.93
2022-11-21T12:34:04.174Z,8.30
2022-11-21T12:36:48.955Z,12.05
2022-11-21T12:39:18.306Z,14.48
2022-11-21T12:42:09.510Z,12.10
2022-11-21T12:44:35.776Z,14.80
2022-11-21T12:47:11.159Z,18.55
2022-11-21T12:49:59.048Z,12.30
2022-11-21T12:52:50.258Z,9.60
2022-11-21T12:55:35.917Z,11.63
2022-11-21T12:58:05.001Z,11.75
2022-11-21T13:00:52.707Z,9.27
2022-11-21T13:03:28.827Z,11.68
2022-11-21T13:05:57.118Z,10.00
2022-11-21T13:08:26.068Z,9.02
2022-11-21T13:11:16.763Z,12.88
2022-11-21T13:13:43.826Z,11.13
2022-11-21T13:16:11.584Z,12.45
2022-11-21T13:18:45.605Z,14.60
2022-11-21T13:24:34.286Z,11.85
2022-11-21T13:27:00.513Z,11.35
2022-11-21T13:29:27.001Z,11.77
2022-11-21T13:31:53.434Z,12.93
2022-11-21T13:34:45.994Z,8.43
2022-11-21T13:37:32.205Z,22.10
2022-11-21T13:40:18.412Z,11.98
2022-11-21T13:43:32.566Z,9.98
2022-11-21T13:45:59.149Z,13.70
2022-11-21T13:48:28.185Z,14.77
2022-11-21T13:51:13.448Z,19.63
2022-11-21T13:53:58.476Z,11.88
2022-11-21T13:56:44.864Z,15.60
2022-11-21T13:59:17.289Z,16.08
2022-11-21T14:02:05.759Z,13.45
2022-11-21T14:04:32.015Z,13.68
2022-11-21T14:07:16.820Z,12.15
2022-11-21T14:09:48.171Z,11.35
2022-11-21T14:12:32.743Z,16.63
2022-11-21T14:15:00.056Z,15.45
2022-11-21T14:17:39.721Z,15.15
2022-11-21T14:20:14.999Z,16.65
2022-11-21T14:22:45.763Z,15.13
2022-11-21T14:25:19.358Z,15.98
2022-11-21T14:27:47.910Z,10.90
2022-11-21T14:30:26.293Z,13.55
2022-11-21T14:32:54.538Z,10.13
2022-11-21T14:35:22.697Z,15.00
2022-11-21T14:37:49.049Z,11.77
2022-11-21T14:40:22.977Z,11.55
2022-11-21T14:42:49.228Z,16.10
2022-11-21T14:45:22.685Z,15.52
2022-11-21T14:47:49.961Z,14.10
2022-11-21T14:52:42.450Z,12.23
2022-11-21T14:55:36.455Z,15.70
2022-11-21T14:58:03.341Z,13.73
2022-11-21T15:00:57.875Z,12.10
2022-11-21T15:03:23.725Z,13.15
2022-11-21T15:06:04.408Z,12.15
2022-11-21T15:11:22.318Z,16.65
2022-11-21T15:14:14.268Z,11.25
2022-11-21T15:19:08.494Z,17.73
2022-11-21T15:21:34.891Z,15.32
2022-11-21T15:24:15.714Z,17.23
2022-11-21T15:26:42.110Z,18.65
2022-11-21T15:29:19.163Z,19.33
2022-11-21T15:31:46.295Z,20.88
2022-11-21T15:34:34.227Z,21.73
2022-11-21T15:37:08.123Z,16.30
2022-11-21T15:39:34.523Z,23.45
2022-11-21T15:42:19.336Z,22.23
2022-11-21T15:44:58.987Z,17.38
2022-11-21T15:47:25.284Z,58.33
2022-11-21T15:49:51.525Z,20.55
2022-11-21T15:52:17.780Z,21.38
2022-11-21T15:54:44.039Z,15.50
2022-11-21T15:57:10.502Z,22.45
2022-11-21T15:59:36.888Z,15.07
2022-11-21T16:02:03.303Z,14.73
2022-11-21T16:04:29.577Z,10.45
2022-11-21T16:06:55.820Z,15.75
2022-11-21T16:09:22.081Z,20.73
2022-11-21T16:11:48.333Z,21.05
2022-11-21T16:14:15.417Z,18.42
2022-11-21T16:16:43.709Z,18.48
2022-11-21T16:19:10.987Z,18.95
2022-11-21T16:21:37.224Z,32.35
2022-11-21T16:24:03.652Z,31.65
2022-11-21T16:26:29.917Z,17.83
2022-11-21T16:28:56.822Z,22.23
2022-11-21T16:33:49.295Z,15.02
2022-11-21T16:36:41.746Z,19.98
2022-11-21T16:39:12.355Z,17.05
2022-11-21T16:41:41.556Z,18.35
2022-11-21T16:44:11.766Z,15.60
2022-11-21T16:46:41.408Z,19.05
2022-11-21T16:49:08.811Z,18.00
2022-11-21T16:51:35.120Z,22.58
2022-11-21T16:54:07.185Z,17.35
2022-11-21T16:56:34.946Z,26.10
2022-11-21T16:59:01.175Z,16.65
2022-11-21T17:01:28.456Z,13.68
2022-11-21T17:03:54.759Z,22.30
2022-11-21T17:06:22.055Z,10.38
2022-11-21T17:08:48.351Z,9.50
2022-11-21T17:11:15.809Z,16.00
2022-11-21T17:13:43.231Z,13.23
2022-11-21T17:16:10.120Z,14.20
2022-11-21T17:21:07.268Z,13.80
2022-11-21T17:23:33.721Z,11.57
2022-11-21T17:26:07.042Z,9.18
2022-11-21T17:28:33.504Z,11.02
2022-11-21T17:31:00.069Z,11.38
2022-11-21T17:33:26.525Z,12.30
2022-11-21T17:35:52.755Z,12.73
2022-11-21T17:38:18.975Z,13.68
2022-11-21T17:40:45.364Z,10.95
2022-11-21T17:43:11.652Z,16.17
2022-11-21T17:45:37.894Z,16.60
2022-11-21T17:48:04.223Z,12.85
2022-11-21T17:50:30.487Z,10.32
2022-11-21T17:52:57.072Z,13.30
2022-11-21T17:55:25.634Z,23.38
2022-11-21T17:57:51.858Z,10.95
2022-11-21T18:00:18.955Z,11.80
2022-11-21T18:02:45.335Z,12.40
2022-11-21T18:05:11.712Z,14.18
2022-11-21T18:07:38.005Z,9.02
2022-11-21T18:10:27.396Z,11.40
2022-11-21T18:12:51.528Z,9.00
2022-11-21T18:15:17.872Z,13.23
2022-11-21T18:17:44.108Z,14.18
2022-11-21T18:20:10.688Z,12.93
2022-11-21T18:22:37.266Z,24.48
2022-11-21T18:25:03.601Z,23.40
2022-11-21T18:27:30.320Z,21.08
2022-11-21T18:29:56.720Z,11.63
2022-11-21T18:32:22.946Z,14.35
2022-11-21T18:34:49.185Z,12.25
2022-11-21T18:37:15.420Z,14.68
2022-11-21T18:39:41.661Z,6.95
2022-11-21T18:42:07.890Z,6.55
2022-11-21T18:44:34.150Z,9.65
2022-11-21T18:47:00.389Z,10.63
2022-11-21T18:49:26.796Z,10.60
2022-11-21T18:51:53.189Z,24.50
2022-11-21T18:54:19.470Z,12.00
2022-11-21T18:56:46.983Z,17.80
2022-11-21T18:59:13.691Z,15.85
2022-11-21T19:01:40.165Z,16.52
2022-11-21T19:04:06.598Z,12.98
2022-11-21T19:06:32.887Z,14.13
2022-11-21T19:08:59.136Z,9.48
2022-11-21T19:11:26.856Z,14.48
2022-11-21T19:13:53.739Z,10.90
2022-11-21T19:16:21.993Z,17.67
2022-11-21T19:19:11.778Z,13.10
2022-11-21T19:21:36.946Z,8.90
2022-11-21T19:24:03.470Z,10.38
2022-11-21T19:26:30.920Z,11.13
2022-11-21T19:28:57.543Z,11.05
2022-11-21T19:31:23.802Z,7.68
2022-11-21T19:33:50.037Z,14.50
2022-11-21T19:36:17.621Z,6.65
2022-11-21T19:38:50.237Z,9.68
2022-11-21T19:41:18.943Z,13.20
2022-11-21T19:43:46.359Z,10.43
2022-11-21T19:46:13.684Z,11.52
2022-11-21T19:48:40.273Z,12.88
2022-11-21T19:51:06.676Z,7.80
2022-11-21T19:53:36.868Z,10.63
2022-11-21T19:56:10.859Z,11.25
2022-11-21T19:58:37.112Z,11.82
2022-11-21T20:01:13.476Z,9.57
2022-11-21T20:03:41.248Z,10.00
2022-11-21T20:06:09.005Z,9.45
2022-11-21T20:08:35.265Z,10.40
2022-11-21T20:11:11.111Z,12.02
2022-11-21T20:13:40.848Z,10.93
2022-11-21T20:16:08.660Z,11.05
2022-11-21T20:18:35.887Z,20.48
2022-11-21T20:21:12.190Z,13.82
2022-11-21T20:23:38.818Z,11.38
2022-11-21T20:26:06.237Z,15.73
2022-11-21T20:28:33.919Z,13.63
2022-11-21T20:31:04.064Z,11.85
2022-11-21T20:33:33.744Z,14.18
2022-11-21T20:36:07.505Z,12.85
2022-11-21T20:38:33.790Z,12.95
2022-11-21T20:41:00.226Z,12.27
2022-11-21T20:43:44.186Z,11.52
2022-11-21T20:46:18.715Z,17.17
2022-11-21T20:48:46.582Z,10.75
2022-11-21T20:54:03.400Z,9.68
2022-11-21T20:56:34.482Z,13.23
2022-11-21T20:59:00.743Z,16.95
2022-11-21T21:01:27.779Z,15.50
2022-11-21T21:03:54.368Z,25.67
2022-11-21T21:06:21.051Z,13.98
2022-11-21T21:08:47.743Z,33.38
2022-11-21T21:11:36.707Z,28.20
2022-11-21T21:14:01.192Z,27.00
2022-11-21T21:16:34.150Z,17.35
2022-11-21T21:19:00.418Z,22.55
2022-11-21T21:21:28.318Z,22.48
2022-11-21T21:23:55.566Z,12.77
2022-11-21T21:26:23.583Z,18.20
2022-11-21T21:28:50.094Z,17.60
2022-11-21T21:31:17.772Z,24.20
2022-11-21T21:33:44.418Z,15.07
2022-11-21T21:36:12.061Z,12.43
2022-11-21T21:38:38.589Z,13.23
2022-11-21T21:41:06.010Z,17.38
2022-11-21T21:43:32.749Z,11.50
2022-11-21T21:46:18.070Z,19.77
2022-11-21T21:48:44.963Z,20.10
2022-11-21T21:53:37.828Z,19.13
2022-11-21T21:56:04.756Z,16.08
2022-11-21T22:01:07.090Z,12.90
2022-11-21T22:03:33.451Z,17.13
2022-11-21T22:06:03.333Z,24.27
2022-11-21T22:08:30.776Z,21.95
2022-11-21T22:11:02.865Z,29.55
2022-11-21T22:13:29.370Z,19.80
2022-11-21T22:15:56.424Z,19.92
2022-11-21T22:18:22.683Z,18.85
2022-11-21T22:20:48.894Z,17.42
2022-11-21T22:23:15.321Z,23.65
2022-11-21T22:25:41.565Z,16.95
2022-11-21T22:28:07.807Z,18.35
2022-11-21T22:30:34.081Z,10.13
2022-11-21T22:33:00.314Z,15.95
2022-11-21T22:35:26.604Z,18.10
2022-11-21T22:37:52.834Z,12.15
2022-11-21T22:40:19.298Z,18.52
2022-11-21T22:42:45.526Z,21.85
2022-11-21T22:45:11.757Z,23.20
2022-11-21T22:47:37.981Z,22.42
2022-11-21T22:50:04.493Z,23.80
2022-11-21T22:52:31.762Z,19.42
2022-11-21T22:54:58.266Z,20.02
2022-11-21T22:57:24.524Z,13.55
2022-11-21T22:59:50.781Z,19.80
2022-11-21T23:02:17.131Z,15.65
2022-11-21T23:04:43.373Z,17.30
2022-11-21T23:07:09.755Z,17.60
2022-11-21T23:09:36.281Z,13.77
2022-11-21T23:12:02.564Z,17.13
2022-11-21T23:14:29.018Z,23.20
2022-11-21T23:16:55.791Z,19.98
2022-11-21T23:19:22.026Z,20.70
2022-11-21T23:21:48.280Z,33.67
2022-11-21T23:24:14.518Z,26.67
2022-11-21T23:26:40.742Z,19.77
2022-11-21T23:29:09.029Z,19.00
2022-11-21T23:31:35.772Z,20.95
2022-11-21T23:34:02.079Z,18.42
2022-11-21T23:36:28.324Z,18.65
2022-11-21T23:38:54.558Z,16.10
2022-11-21T23:41:20.778Z,17.27
2022-11-21T23:43:47.027Z,18.15
2022-11-21T23:46:13.234Z,18.10
2022-11-21T23:48:39.454Z,15.30
2022-11-21T23:51:05.663Z,17.25
2022-11-21T23:53:31.907Z,12.32
2022-11-21T23:55:58.131Z,16.58
2022-11-21T23:58:24.399Z,12.02
